KILM/ILM METAR and TAF weather

Enter ICAO airport designator
Station Type Date Time Source
KILM METAR 2020/01/28 11:53 UTC NOAA

KILM 281153Z 33006KT 10SM CLR 04/03 A2995 RMK AO2 SLP140 70018 T00390028 10078 20039 53021


Station Type Date Time Source
KILM Decoded METAR 2020/01/28 11:53 UTC NOAA

WILMINGTON INT'L AIRPORT, NC, United States (KILM) 34-16N 077-54W 9M
Jan 28, 2020 - 06:53 AM EST / 2020.01.28 1153 UTC
Wind: from the NNW (330 degrees) at 7 MPH (6 KT):0
Visibility: 10 mile(s):0
Sky conditions: clear
Temperature: 39.0 F (3.9 C)
Dew Point: 37.0 F (2.8 C)
Relative Humidity: 92%
Pressure (altimeter): 29.95 in. Hg (1014 hPa)
Pressure tendency: 0.06 inches (2.1 hPa) higher than three hours ago
ob: KILM 281153Z 33006KT 10SM CLR 04/03 A2995 RMK AO2 SLP140 70018 T00390028 10078 20039 53021
cycle: 12

Station Type Date Time Source
KILM TAF 2020/01/28 12:22 UTC NOAA

TAF KILM 281120Z 2812/2912 31005KT P6SM SKC
FM281400 35006KT P6SM SKC
FM282200 32004KT P6SM SKC

Example: see airport list